Flight Track Log - Related Links

Times and Time Zones

All times are in EDT time to prevent confusion due to time zone crossing. See the DAL3698 flight status page for this flight to view local times or setup timezone preferences in your user account.

Time Position Orientation Groundspeed Altitude Reporting Facility
EDT Latitude Longitude Course Direction KTS MPH feet Rate Location/Type
Fri 08:22:15 PM 44.8833 -93.2833 207° Southwest 189 217 3,200  Level Minneapolis TRACON
Fri 08:23:38 PM 44.8211 -93.3283 207° Southwest 257 296 7,000 2,772 Climbing Minneapolis Center
Fri 08:24:40 PM 44.7964 -93.2203 108° East 292 336 9,900 1,935 Climbing Minneapolis Center
Fri 08:25:42 PM 44.7442 -93.1386 132° Southeast 325 374 11,000 532 Climbing Minneapolis Center
Fri 08:26:44 PM 44.6675 -93.0050 129° Southeast 359 413 11,000  Level Minneapolis Center
Fri 08:27:46 PM 44.6053 -92.8997 130° Southeast 352 405 11,000  Level Minneapolis Center
Fri 08:28:47 PM 44.5436 -92.7942 129° Southeast 350 403 11,000  Level Minneapolis Center
Fri 08:29:49 PM 44.4814 -92.6894 130° Southeast 351 404 11,000  Level Minneapolis Center
Fri 08:30:51 PM 44.4194 -92.5847 130° Southeast 351 404 11,000  Level Minneapolis Center
Fri 08:31:53 PM 44.3619 -92.4753 126° Southeast 349 402 11,000  Level Minneapolis Center
Fri 08:32:55 PM 44.3169 -92.3572 118° Southeast 346 398 11,000  Level Minneapolis Center
Fri 08:33:57 PM 44.2614 -92.2172 119° Southeast 345 397 11,000  Level Minneapolis Center
Fri 08:34:59 PM 44.2147 -92.1000 119° Southeast 347 399 11,000 -242 Level Minneapolis Center
Fri 08:36:01 PM 44.1694 -91.9836 118° Southeast 345 397 10,500 -968 Descending Minneapolis Center
Fri 08:37:03 PM 44.1275 -91.8761 118° Southeast 312 359 9,000 -1,452 Descending Minneapolis Center
Fri 08:38:05 PM 44.0844 -91.7678 119° Southeast 302 348 7,500 -1,415 Descending Minneapolis Center
Fri 08:39:06 PM 44.0458 -91.6697 119° Southeast 293 337 6,100 -1,220 Descending Minneapolis Center
Fri 08:40:08 PM 44.0047 -91.5672 119° Southeast 289 333 5,000 -919 Descending Minneapolis Center
Fri 08:41:10 PM 43.9639 -91.4681 120° Southeast 287 330 4,200 -677 Descending Minneapolis Center
Fri 08:42:12 PM 43.9281 -91.3783 119° Southeast 254 292 3,600 -435 Descending Minneapolis Center
Fri 08:43:14 PM 43.8800 -91.3308 145° Southeast 223 257 3,300 -435 Descending Minneapolis Center
Fri 08:44:16 PM 43.8278 -91.3200 171° South 221 254 2,700 -581 Descending Minneapolis Center
Fri 08:46:00 PM 43.8667 -91.2500 105° East  Level FlightAware Approximate
Fri 08:53:00 PM 43.8793 -91.2566 105° East  Level Estimated

Login

Don't have an account? Register now (free) for customized features, flight alerts, and more!